createdAt,value
2022-12-20T00:01:36.038Z,2.95
2022-12-20T00:04:06.007Z,2.99
2022-12-20T00:06:35.893Z,3.03
2022-12-20T00:09:06.446Z,2.98
2022-12-20T00:11:34.420Z,3.04
2022-12-20T00:14:02.291Z,3.11
2022-12-20T00:16:30.368Z,3.24
2022-12-20T00:19:01.394Z,3.11
2022-12-20T00:21:29.671Z,3.22
2022-12-20T00:23:57.731Z,3.32
2022-12-20T00:26:28.388Z,3.13
2022-12-20T00:28:57.029Z,3.12
2022-12-20T00:31:25.705Z,3.19
2022-12-20T00:33:54.928Z,3.20
2022-12-20T00:36:24.767Z,3.22
2022-12-20T00:38:54.829Z,3.19
2022-12-20T00:41:28.627Z,3.17
2022-12-20T00:43:56.739Z,3.11
2022-12-20T00:46:25.108Z,3.01
2022-12-20T00:48:54.531Z,3.05
2022-12-20T00:51:25.700Z,3.04
2022-12-20T00:53:53.788Z,3.05
2022-12-20T00:56:21.715Z,3.12
2022-12-20T00:58:49.786Z,3.31
2022-12-20T01:01:30.523Z,3.31
2022-12-20T01:03:59.009Z,3.33
2022-12-20T01:06:27.368Z,3.28
2022-12-20T01:08:55.606Z,3.32
2022-12-20T01:11:28.944Z,3.36
2022-12-20T01:13:57.743Z,3.40
2022-12-20T01:16:29.024Z,3.41
2022-12-20T01:18:56.954Z,3.52
2022-12-20T01:21:26.187Z,3.60
2022-12-20T01:23:54.243Z,3.63
2022-12-20T01:26:24.581Z,3.70
2022-12-20T01:28:54.769Z,3.69
2022-12-20T01:31:23.082Z,3.72
2022-12-20T01:33:51.340Z,3.70
2022-12-20T01:36:25.391Z,3.72
2022-12-20T01:39:04.937Z,3.72
2022-12-20T01:41:32.785Z,3.63
2022-12-20T01:44:03.735Z,3.57
2022-12-20T01:46:34.588Z,3.78
2022-12-20T01:49:11.034Z,3.84
2022-12-20T01:52:16.312Z,3.84
2022-12-20T01:54:55.648Z,3.76
2022-12-20T01:57:39.027Z,3.83
2022-12-20T02:00:09.896Z,3.83
2022-12-20T02:02:46.086Z,3.89
2022-12-20T02:05:15.074Z,3.84
2022-12-20T02:07:47.027Z,3.94
2022-12-20T02:10:17.055Z,3.93
2022-12-20T02:12:46.645Z,4.04
2022-12-20T02:15:32.538Z,4.07
2022-12-20T02:18:08.691Z,3.90
2022-12-20T02:21:19.868Z,3.82
2022-12-20T02:24:17.852Z,3.77
2022-12-20T02:27:10.191Z,3.83
2022-12-20T02:30:01.638Z,3.83
2022-12-20T02:32:43.545Z,3.98
2022-12-20T02:35:14.191Z,4.00
2022-12-20T02:37:51.186Z,3.97
2022-12-20T02:40:26.990Z,3.86
2022-12-20T02:43:01.214Z,3.79
2022-12-20T02:45:35.271Z,3.85
2022-12-20T02:48:12.480Z,3.94
2022-12-20T02:50:46.336Z,3.97
2022-12-20T02:53:14.443Z,3.88
2022-12-20T02:55:51.505Z,3.92
2022-12-20T02:58:32.395Z,3.84
2022-12-20T03:01:04.712Z,3.92
2022-12-20T03:03:35.961Z,3.97
2022-12-20T03:06:03.991Z,4.03
2022-12-20T03:08:32.043Z,4.03
2022-12-20T03:11:00.129Z,4.07
2022-12-20T03:13:28.863Z,4.11
2022-12-20T03:16:00.950Z,4.17
2022-12-20T03:18:29.088Z,4.13
2022-12-20T03:20:56.972Z,4.15
2022-12-20T03:23:24.869Z,4.02
2022-12-20T03:25:52.750Z,4.06
2022-12-20T03:28:30.946Z,4.10
2022-12-20T03:30:58.942Z,4.14
2022-12-20T03:33:26.991Z,4.12
2022-12-20T03:35:55.429Z,4.15
2022-12-20T03:38:23.431Z,4.10
2022-12-20T03:40:51.409Z,4.12
2022-12-20T03:43:21.422Z,4.25
2022-12-20T03:45:49.231Z,4.24
2022-12-20T03:48:17.126Z,4.20
2022-12-20T03:50:45.151Z,4.35
2022-12-20T03:53:13.082Z,4.39
2022-12-20T03:55:45.152Z,4.45
2022-12-20T03:58:14.143Z,4.49
2022-12-20T04:00:42.742Z,4.49
2022-12-20T04:03:32.560Z,4.47
2022-12-20T04:06:00.496Z,4.58
2022-12-20T04:08:28.745Z,4.67
2022-12-20T04:11:15.867Z,4.60
2022-12-20T04:13:53.454Z,4.59
2022-12-20T04:16:26.054Z,4.67
2022-12-20T04:18:54.917Z,4.65
2022-12-20T04:21:26.501Z,4.65
2022-12-20T04:23:55.767Z,4.76
2022-12-20T04:26:25.484Z,4.75
2022-12-20T04:28:53.760Z,4.74
2022-12-20T04:31:24.238Z,4.78
2022-12-20T04:33:53.508Z,4.86
2022-12-20T04:36:22.280Z,4.88
2022-12-20T04:38:51.692Z,4.84
2022-12-20T04:41:22.794Z,4.84
2022-12-20T04:43:58.044Z,4.93
2022-12-20T04:46:31.428Z,4.88
2022-12-20T04:49:00.177Z,5.01
2022-12-20T04:51:29.230Z,5.01
2022-12-20T04:53:57.291Z,4.88
2022-12-20T04:56:37.444Z,4.95
2022-12-20T04:59:11.140Z,4.96
2022-12-20T05:01:40.553Z,5.02
2022-12-20T05:04:09.065Z,5.04
2022-12-20T05:06:37.816Z,4.98
2022-12-20T05:09:05.905Z,4.91
2022-12-20T05:11:34.163Z,4.91
2022-12-20T05:14:04.279Z,4.99
2022-12-20T05:16:32.367Z,4.98
2022-12-20T05:19:00.424Z,5.18
2022-12-20T05:21:47.329Z,4.74
2022-12-20T05:24:34.659Z,3.44
2022-12-20T05:27:11.697Z,2.55
2022-12-20T05:29:39.904Z,3.28
2022-12-20T05:32:07.871Z,4.52
2022-12-20T05:34:38.198Z,5.35
2022-12-20T05:37:07.057Z,6.01
2022-12-20T05:39:35.464Z,5.18
2022-12-20T05:42:06.683Z,4.00
2022-12-20T05:44:35.394Z,3.08
2022-12-20T05:47:03.541Z,2.49
2022-12-20T05:49:32.453Z,3.29
2022-12-20T05:52:02.584Z,4.48
2022-12-20T05:54:30.743Z,5.37
2022-12-20T05:57:04.361Z,5.22
2022-12-20T05:59:35.993Z,4.30
2022-12-20T06:02:05.397Z,3.34
2022-12-20T06:04:35.417Z,2.69
2022-12-20T06:07:09.635Z,3.32
2022-12-20T06:09:37.756Z,4.27
2022-12-20T06:12:08.842Z,4.76
2022-12-20T06:14:36.811Z,5.02
2022-12-20T06:17:04.778Z,5.19
2022-12-20T06:19:33.189Z,5.16
2022-12-20T06:22:01.843Z,5.31
2022-12-20T06:24:48.162Z,5.40
2022-12-20T06:27:18.730Z,5.46
2022-12-20T06:29:52.268Z,5.09
2022-12-20T06:32:23.544Z,4.07
2022-12-20T06:34:51.832Z,3.24
2022-12-20T06:37:19.713Z,3.45
2022-12-20T06:39:47.616Z,4.18
2022-12-20T06:42:16.019Z,4.69
2022-12-20T06:44:45.803Z,4.98
2022-12-20T06:47:14.188Z,5.26
2022-12-20T06:49:42.045Z,5.40
2022-12-20T06:52:17.492Z,5.53
2022-12-20T06:54:51.224Z,5.45
2022-12-20T06:57:21.114Z,5.73
2022-12-20T06:59:49.913Z,5.93
2022-12-20T07:02:17.841Z,6.19
2022-12-20T07:04:46.144Z,6.10
2022-12-20T07:07:13.943Z,5.10
2022-12-20T07:09:42.762Z,4.02
2022-12-20T07:12:10.876Z,3.79
2022-12-20T07:14:38.829Z,4.76
2022-12-20T07:17:07.708Z,5.30
2022-12-20T07:19:36.503Z,5.63
2022-12-20T07:22:05.832Z,5.88
2022-12-20T07:24:34.193Z,6.09
2022-12-20T07:27:02.353Z,6.14
2022-12-20T07:29:30.327Z,6.04
2022-12-20T07:31:58.400Z,5.09
2022-12-20T07:34:26.341Z,4.18
2022-12-20T07:36:54.347Z,3.68
2022-12-20T07:39:22.218Z,4.27
2022-12-20T07:41:55.791Z,4.91
2022-12-20T07:44:24.179Z,5.30
2022-12-20T07:46:52.138Z,5.52
2022-12-20T07:49:20.008Z,5.70
2022-12-20T07:51:50.490Z,5.76
2022-12-20T07:54:22.051Z,5.94
2022-12-20T07:56:53.575Z,6.15
2022-12-20T07:59:25.495Z,6.21
2022-12-20T08:01:54.364Z,6.23
2022-12-20T08:04:25.863Z,6.37
2022-12-20T08:06:55.933Z,6.15
2022-12-20T08:09:23.920Z,5.24
2022-12-20T08:11:51.898Z,4.41
2022-12-20T08:14:19.784Z,3.96
2022-12-20T08:16:47.599Z,4.49
2022-12-20T08:19:15.484Z,5.28
2022-12-20T08:21:43.407Z,5.98
2022-12-20T08:24:12.253Z,6.50
2022-12-20T08:26:40.932Z,6.84
2022-12-20T08:29:09.211Z,7.01
2022-12-20T08:31:47.646Z,6.42
2022-12-20T08:34:18.447Z,5.53
2022-12-20T08:36:46.306Z,4.88
2022-12-20T08:39:14.178Z,4.47
2022-12-20T08:41:42.164Z,5.01
2022-12-20T08:44:10.900Z,5.86
2022-12-20T08:46:38.955Z,6.47
2022-12-20T08:49:06.972Z,6.82
2022-12-20T08:51:35.036Z,7.08
2022-12-20T08:54:03.388Z,6.64
2022-12-20T08:56:31.517Z,5.79
2022-12-20T08:58:59.665Z,5.10
2022-12-20T09:01:30.060Z,4.61
2022-12-20T09:03:58.140Z,5.03
2022-12-20T09:06:26.230Z,5.87
2022-12-20T09:08:55.801Z,6.56
2022-12-20T09:11:25.914Z,6.97
2022-12-20T09:13:55.980Z,6.90
2022-12-20T09:16:26.830Z,6.12
2022-12-20T09:19:04.328Z,5.43
2022-12-20T09:21:35.207Z,4.95
2022-12-20T09:24:03.564Z,4.66
2022-12-20T09:26:32.446Z,5.08
2022-12-20T09:29:02.263Z,6.07
2022-12-20T09:31:30.452Z,6.66
2022-12-20T09:33:59.065Z,6.96
2022-12-20T09:36:28.579Z,6.36
2022-12-20T09:38:57.004Z,5.71
2022-12-20T09:41:34.763Z,5.33
2022-12-20T09:44:12.385Z,5.95
2022-12-20T09:46:40.669Z,6.73
2022-12-20T09:49:16.243Z,7.13
2022-12-20T09:52:20.051Z,6.87
2022-12-20T09:54:57.269Z,5.83
2022-12-20T09:57:44.977Z,5.19
2022-12-20T10:00:18.304Z,5.03
2022-12-20T10:03:01.924Z,5.92
2022-12-20T10:05:46.413Z,6.83
2022-12-20T10:08:24.691Z,7.10
2022-12-20T10:11:25.387Z,6.37
2022-12-20T10:14:14.958Z,5.62
2022-12-20T10:16:46.336Z,5.13
2022-12-20T10:19:34.398Z,4.85
2022-12-20T10:22:20.317Z,5.66
2022-12-20T10:24:56.523Z,6.80
2022-12-20T10:27:24.490Z,7.22
2022-12-20T10:29:52.455Z,6.69
2022-12-20T10:32:23.518Z,5.99
2022-12-20T10:35:15.361Z,5.52
2022-12-20T10:38:14.058Z,5.53
2022-12-20T10:41:19.399Z,6.67
2022-12-20T10:43:51.191Z,7.39
2022-12-20T10:46:19.338Z,7.37
2022-12-20T10:48:48.174Z,6.65
2022-12-20T10:51:21.546Z,6.02
2022-12-20T10:54:03.318Z,5.54
2022-12-20T10:56:32.772Z,5.15
2022-12-20T10:59:23.672Z,5.58
2022-12-20T11:01:51.763Z,6.66
2022-12-20T11:04:29.952Z,7.14
2022-12-20T11:06:59.763Z,6.72
2022-12-20T11:09:33.674Z,6.08
2022-12-20T11:12:13.587Z,5.58
2022-12-20T11:14:46.013Z,5.25
2022-12-20T11:17:34.825Z,5.45
2022-12-20T11:20:46.219Z,6.41
2022-12-20T11:23:18.395Z,7.04
2022-12-20T11:26:23.915Z,6.50
2022-12-20T11:29:28.263Z,5.67
2022-12-20T11:32:29.682Z,5.04
2022-12-20T11:35:08.091Z,4.61
2022-12-20T11:37:51.356Z,4.42
2022-12-20T11:40:31.373Z,5.31
2022-12-20T11:43:27.800Z,6.50
2022-12-20T11:46:29.956Z,6.67
2022-12-20T11:49:19.792Z,5.76
2022-12-20T11:51:51.171Z,5.08
2022-12-20T11:54:24.181Z,4.65
2022-12-20T11:56:56.394Z,4.30
2022-12-20T11:59:42.832Z,4.04
2022-12-20T12:02:14.409Z,4.48
2022-12-20T12:04:51.528Z,5.43
2022-12-20T12:07:24.221Z,6.20
2022-12-20T12:10:22.070Z,6.35
2022-12-20T12:13:01.050Z,5.51
2022-12-20T12:15:35.820Z,4.83
2022-12-20T12:18:19.625Z,4.33
2022-12-20T12:20:53.780Z,4.59
2022-12-20T12:23:31.478Z,5.50
2022-12-20T12:26:03.873Z,6.27
2022-12-20T12:28:32.913Z,6.07
2022-12-20T12:31:07.010Z,5.31
2022-12-20T12:33:40.679Z,4.69
2022-12-20T12:36:54.801Z,4.22
2022-12-20T12:39:53.401Z,3.82
2022-12-20T12:43:16.008Z,3.65
2022-12-20T12:45:49.321Z,4.77
2022-12-20T12:48:20.892Z,5.64
2022-12-20T12:50:52.044Z,6.22
2022-12-20T12:53:22.746Z,5.94
2022-12-20T12:55:52.154Z,5.29
2022-12-20T12:58:23.454Z,4.70
2022-12-20T13:00:58.408Z,4.35
2022-12-20T13:03:54.544Z,4.25
2022-12-20T13:06:25.508Z,5.40
2022-12-20T13:08:56.642Z,6.60
2022-12-20T13:11:44.240Z,6.61
2022-12-20T13:14:17.471Z,5.72
2022-12-20T13:19:39.611Z,4.58
2022-12-20T13:22:18.299Z,4.24
2022-12-20T13:24:48.474Z,3.98
2022-12-20T13:27:32.839Z,3.85
2022-12-20T13:30:19.313Z,4.74
2022-12-20T13:32:47.271Z,5.73
2022-12-20T13:35:28.281Z,6.39
2022-12-20T13:38:13.373Z,6.82
2022-12-20T13:41:02.209Z,6.11
2022-12-20T13:43:36.719Z,5.16
2022-12-20T13:46:13.731Z,4.55
2022-12-20T13:48:52.763Z,4.08
2022-12-20T13:51:23.632Z,3.72
2022-12-20T13:54:01.700Z,3.80
2022-12-20T13:56:49.502Z,5.03
2022-12-20T13:59:28.760Z,5.78
2022-12-20T14:01:59.577Z,5.84
2022-12-20T14:04:38.897Z,5.16
2022-12-20T14:07:06.922Z,4.46
2022-12-20T14:09:36.992Z,3.96
2022-12-20T14:12:12.018Z,3.59
2022-12-20T14:14:47.355Z,4.23
2022-12-20T14:17:23.070Z,5.31
2022-12-20T14:20:13.721Z,5.83
2022-12-20T14:22:51.171Z,5.20
2022-12-20T14:25:57.434Z,4.36
2022-12-20T14:28:39.377Z,3.71
2022-12-20T14:31:27.123Z,4.19
2022-12-20T14:34:16.557Z,5.19
2022-12-20T14:36:46.766Z,5.71
2022-12-20T14:39:34.352Z,5.47
2022-12-20T14:42:08.406Z,4.57
2022-12-20T14:44:36.481Z,3.93
2022-12-20T14:47:23.482Z,3.51
2022-12-20T14:50:27.368Z,3.16
2022-12-20T14:52:55.353Z,4.04
2022-12-20T14:55:28.717Z,4.92
2022-12-20T14:57:57.855Z,5.56
2022-12-20T15:00:31.658Z,5.95
2022-12-20T15:03:11.523Z,5.83
2022-12-20T15:05:45.532Z,4.92
2022-12-20T15:08:19.657Z,4.16
2022-12-20T15:10:53.252Z,3.63
2022-12-20T15:13:36.564Z,3.29
2022-12-20T15:16:27.191Z,3.92
2022-12-20T15:19:00.478Z,5.13
2022-12-20T15:21:38.547Z,5.85
2022-12-20T15:24:11.634Z,5.15
2022-12-20T15:26:39.733Z,4.28
2022-12-20T15:29:07.751Z,3.70
2022-12-20T15:31:35.969Z,3.30
2022-12-20T15:34:06.973Z,3.05
2022-12-20T15:36:34.868Z,3.87
2022-12-20T15:39:12.633Z,5.19
2022-12-20T15:41:44.620Z,5.99
2022-12-20T15:44:18.337Z,6.09
2022-12-20T15:46:46.560Z,5.17
2022-12-20T15:49:16.817Z,4.36
2022-12-20T15:51:45.415Z,3.76
2022-12-20T15:54:30.011Z,3.33
2022-12-20T15:57:00.284Z,2.94
2022-12-20T16:02:28.245Z,2.60
2022-12-20T16:04:57.816Z,3.72
2022-12-20T16:07:25.937Z,4.75
2022-12-20T16:09:54.325Z,5.41
2022-12-20T16:12:28.179Z,5.91
2022-12-20T16:14:56.484Z,6.08
2022-12-20T16:17:24.673Z,5.27
2022-12-20T16:19:52.687Z,4.49
2022-12-20T16:22:22.599Z,3.92
2022-12-20T16:24:50.676Z,3.48
2022-12-20T16:27:18.679Z,3.14
2022-12-20T16:29:46.640Z,2.86
2022-12-20T16:32:18.655Z,2.62
2022-12-20T16:34:47.100Z,2.75
2022-12-20T16:37:15.143Z,3.75
2022-12-20T16:39:43.255Z,4.70
2022-12-20T16:42:15.651Z,5.43
2022-12-20T16:44:45.562Z,5.45
2022-12-20T16:47:14.978Z,4.61
2022-12-20T16:49:51.601Z,3.91
2022-12-20T16:52:22.264Z,3.37
2022-12-20T16:54:51.244Z,3.35
2022-12-20T16:57:21.418Z,4.22
2022-12-20T16:59:49.968Z,4.98
2022-12-20T17:02:29.125Z,5.53
2022-12-20T17:04:58.161Z,5.31
2022-12-20T17:07:26.138Z,4.50
2022-12-20T17:10:12.734Z,3.81
2022-12-20T17:12:40.708Z,3.25
2022-12-20T17:15:31.783Z,2.90
2022-12-20T17:17:59.789Z,3.54
2022-12-20T17:20:31.096Z,4.51
2022-12-20T17:23:03.079Z,5.16
2022-12-20T17:25:35.192Z,5.55
2022-12-20T17:28:03.215Z,5.57
2022-12-20T17:30:31.217Z,4.70
2022-12-20T17:32:59.248Z,3.88
2022-12-20T17:35:30.642Z,3.28
2022-12-20T17:37:59.075Z,2.84
2022-12-20T17:40:28.069Z,2.48
2022-12-20T17:42:56.201Z,2.23
2022-12-20T17:45:32.616Z,2.84
2022-12-20T17:48:00.984Z,3.82
2022-12-20T17:50:29.050Z,4.34
2022-12-20T17:52:59.891Z,4.75
2022-12-20T17:55:28.727Z,4.50
2022-12-20T17:57:56.863Z,3.75
2022-12-20T18:00:38.420Z,3.11
2022-12-20T18:03:07.340Z,2.60
2022-12-20T18:05:35.654Z,2.70
2022-12-20T18:08:03.753Z,3.71
2022-12-20T18:10:31.839Z,4.37
2022-12-20T18:12:59.779Z,4.64
2022-12-20T18:15:27.693Z,4.11
2022-12-20T18:17:55.853Z,3.42
2022-12-20T18:20:23.915Z,2.89
2022-12-20T18:22:52.189Z,2.63
2022-12-20T18:25:20.233Z,3.38
2022-12-20T18:27:48.231Z,4.24
2022-12-20T18:30:16.143Z,4.75
2022-12-20T18:32:44.127Z,4.81
2022-12-20T18:35:12.094Z,4.04
2022-12-20T18:37:40.206Z,3.37
2022-12-20T18:40:09.175Z,2.91
2022-12-20T18:42:37.186Z,2.58
2022-12-20T18:45:06.147Z,2.32
2022-12-20T18:47:34.198Z,2.31
2022-12-20T18:50:02.196Z,3.41
2022-12-20T18:52:30.193Z,4.60
2022-12-20T18:54:58.608Z,5.32
2022-12-20T18:57:26.622Z,5.44
2022-12-20T18:59:54.648Z,4.62
2022-12-20T19:02:22.710Z,3.84
2022-12-20T19:04:50.931Z,3.29
2022-12-20T19:07:19.006Z,3.07
2022-12-20T19:09:47.064Z,3.98
2022-12-20T19:12:15.043Z,4.92
2022-12-20T19:14:43.106Z,5.51
2022-12-20T19:17:11.256Z,5.39
2022-12-20T19:19:39.345Z,4.55
2022-12-20T19:22:07.430Z,3.80
2022-12-20T19:24:36.002Z,3.28
2022-12-20T19:27:06.267Z,2.89
2022-12-20T19:29:34.399Z,2.69
2022-12-20T19:32:02.755Z,3.63
2022-12-20T19:34:31.690Z,4.65
2022-12-20T19:36:59.938Z,5.19
2022-12-20T19:39:28.949Z,5.03
2022-12-20T19:42:23.044Z,4.22
2022-12-20T19:44:47.801Z,3.47
2022-12-20T19:47:15.734Z,3.03
2022-12-20T19:49:43.738Z,3.51
2022-12-20T19:52:12.170Z,4.41
2022-12-20T19:54:40.214Z,4.98
2022-12-20T19:57:08.166Z,5.42
2022-12-20T19:59:36.222Z,5.16
2022-12-20T20:02:04.424Z,4.34
2022-12-20T20:04:33.106Z,3.67
2022-12-20T20:07:01.254Z,3.22
2022-12-20T20:09:30.316Z,2.90
2022-12-20T20:11:58.309Z,3.65
2022-12-20T20:14:26.501Z,4.80
2022-12-20T20:16:54.551Z,5.24
2022-12-20T20:19:22.485Z,4.77
2022-12-20T20:21:50.602Z,4.08
2022-12-20T20:24:18.976Z,3.45
2022-12-20T20:26:47.041Z,2.99
2022-12-20T20:29:15.113Z,3.29
2022-12-20T20:31:43.161Z,4.49
2022-12-20T20:34:11.260Z,5.24
2022-12-20T20:36:39.448Z,4.95
2022-12-20T20:39:07.524Z,4.13
2022-12-20T20:41:35.466Z,3.53
2022-12-20T20:44:03.657Z,3.05
2022-12-20T20:46:32.138Z,2.69
2022-12-20T20:49:00.130Z,2.71
2022-12-20T20:51:28.211Z,3.68
2022-12-20T20:53:56.463Z,4.53
2022-12-20T20:56:24.334Z,5.04
2022-12-20T20:58:55.272Z,5.01
2022-12-20T21:01:25.842Z,4.22
2022-12-20T21:03:54.058Z,3.55
2022-12-20T21:06:41.984Z,3.03
2022-12-20T21:09:10.261Z,2.62
2022-12-20T21:11:38.520Z,2.36
2022-12-20T21:14:06.897Z,2.74
2022-12-20T21:16:34.900Z,3.79
2022-12-20T21:19:03.065Z,4.60
2022-12-20T21:21:31.114Z,5.10
2022-12-20T21:23:59.179Z,4.96
2022-12-20T21:26:27.338Z,4.21
2022-12-20T21:28:59.415Z,3.54
2022-12-20T21:31:28.391Z,3.02
2022-12-20T21:33:57.321Z,2.66
2022-12-20T21:36:25.691Z,2.38
2022-12-20T21:38:56.650Z,2.15
2022-12-20T21:41:27.289Z,1.96
2022-12-20T21:43:57.259Z,2.33
2022-12-20T21:46:25.908Z,3.42
2022-12-20T21:48:54.453Z,4.28
2022-12-20T21:51:23.947Z,4.86
2022-12-20T21:53:54.378Z,5.34
2022-12-20T21:56:22.837Z,5.42
2022-12-20T21:58:51.141Z,4.64
2022-12-20T22:01:25.869Z,3.90
2022-12-20T22:04:00.154Z,3.37
2022-12-20T22:06:28.542Z,2.94
2022-12-20T22:08:58.674Z,2.66
2022-12-20T22:11:26.901Z,2.44
2022-12-20T22:13:58.439Z,2.25
2022-12-20T22:16:32.001Z,2.54
2022-12-20T22:19:00.671Z,3.80
2022-12-20T22:21:30.829Z,4.67
2022-12-20T22:24:01.109Z,5.20
2022-12-20T22:26:31.213Z,4.96
2022-12-20T22:29:05.296Z,4.19
2022-12-20T22:31:33.672Z,3.54
2022-12-20T22:34:02.037Z,3.08
2022-12-20T22:36:30.173Z,2.71
2022-12-20T22:38:58.611Z,2.43
2022-12-20T22:41:29.633Z,2.22
2022-12-20T22:43:58.777Z,2.59
2022-12-20T22:46:29.493Z,3.68
2022-12-20T22:48:59.292Z,4.39
2022-12-20T22:51:30.938Z,4.96
2022-12-20T22:53:59.904Z,5.09
2022-12-20T22:56:28.270Z,4.35
2022-12-20T22:58:56.346Z,3.65
2022-12-20T23:01:25.134Z,3.18
2022-12-20T23:03:53.391Z,2.81
2022-12-20T23:06:22.057Z,2.50
2022-12-20T23:08:50.081Z,2.36
2022-12-20T23:11:40.036Z,3.08
2022-12-20T23:14:31.865Z,4.13
2022-12-20T23:17:00.344Z,4.90
2022-12-20T23:19:28.786Z,4.95
2022-12-20T23:22:15.316Z,4.24
2022-12-20T23:24:43.902Z,3.48
2022-12-20T23:27:11.898Z,2.99
2022-12-20T23:29:40.956Z,2.65
2022-12-20T23:32:08.935Z,2.33
2022-12-20T23:34:36.863Z,2.06
2022-12-20T23:37:04.939Z,2.34
2022-12-20T23:39:33.013Z,3.32
2022-12-20T23:42:01.212Z,4.05
2022-12-20T23:44:29.160Z,4.65
2022-12-20T23:46:57.065Z,4.44
2022-12-20T23:49:25.089Z,3.65
2022-12-20T23:51:53.128Z,3.03
2022-12-20T23:54:23.912Z,2.55
2022-12-20T23:56:51.865Z,2.19
2022-12-20T23:59:20.237Z,1.90
